Time;durP1;ratioP1;P1;durP2;ratioP2;P2;SDS_P1;SDS_P2;PMS_P1;PMS_P2;Temp;Humidity;BMP_temperature;BMP_pressure;BME280_temperature;BME280_humidity;BME280_pressure;Samples;Min_cycle;Max_cycle;Signal;HPM_P1;HPM_P2
2024/04/08 05:00:43;;;;;;;23.50;6.97;;;;;;;;;;5930468;23;20533;-74
2024/04/08 05:03:09;;;;;;;22.43;7.13;;;;;;;;;;5054537;28;20436;-73
2024/04/08 05:05:35;;;;;;;27.43;7.20;;;;;;;;;;5060543;28;20400;-74
2024/04/08 05:08:01;;;;;;;23.67;7.37;;;;;;;;;;5061216;28;20409;-73
2024/04/08 05:10:26;;;;;;;29.93;7.93;;;;;;;;;;5055683;28;20425;-74
2024/04/08 05:12:52;;;;;;;22.60;7.70;;;;;;;;;;5055135;28;20427;-77
2024/04/08 05:15:18;;;;;;;13.13;6.70;;;;;;;;;;5053250;28;20470;-76
2024/04/08 05:17:45;;;;;;;18.33;7.40;;;;;;;;;;5053586;28;20887;-75
2024/04/08 05:20:11;;;;;;;21.43;7.43;;;;;;;;;;5053488;28;20463;-76
2024/04/08 05:22:44;;;;;;;27.67;7.27;;;;;;;;;;5053699;28;20413;-76
2024/04/08 05:25:10;;;;;;;17.27;6.40;;;;;;;;;;5053775;28;20915;-76
2024/04/08 05:27:36;;;;;;;21.27;6.70;;;;;;;;;;5051758;28;20448;-75
2024/04/08 05:30:02;;;;;;;15.40;7.07;;;;;;;;;;5053007;28;20831;-75
2024/04/08 05:32:28;;;;;;;19.93;7.33;;;;;;;;;;5053232;28;20443;-76
2024/04/08 05:34:54;;;;;;;26.77;7.97;;;;;;;;;;5052649;28;20416;-76
2024/04/08 05:37:19;;;;;;;23.90;6.50;;;;;;;;;;5053231;28;20511;-77
2024/04/08 05:39:45;;;;;;;24.10;6.10;;;;;;;;;;5056568;28;20468;-77
2024/04/08 05:42:11;;;;;;;21.57;6.57;;;;;;;;;;5053211;28;20472;-77
2024/04/08 05:44:37;;;;;;;17.37;6.67;;;;;;;;;;5053556;28;20409;-76
2024/04/08 05:47:03;;;;;;;16.03;5.43;;;;;;;;;;5054984;28;20412;-77
2024/04/08 05:49:29;;;;;;;20.47;6.40;;;;;;;;;;5054921;28;20412;-73
2024/04/08 05:51:55;;;;;;;25.30;7.43;;;;;;;;;;5052774;28;20844;-73
2024/04/08 05:54:21;;;;;;;21.17;7.30;;;;;;;;;;5052884;28;20413;-72
2024/04/08 05:56:47;;;;;;;24.17;7.23;;;;;;;;;;5052482;28;20836;-74
2024/04/08 05:59:13;;;;;;;21.20;7.70;;;;;;;;;;5052696;28;20456;-73
2024/04/08 06:01:39;;;;;;;30.90;7.40;;;;;;;;;;5052267;28;20520;-74
2024/04/08 06:04:05;;;;;;;30.70;6.93;;;;;;;;;;5052269;28;20809;-74
2024/04/08 06:06:32;;;;;;;34.97;6.97;;;;;;;;;;5052131;28;20756;-73
2024/04/08 06:09:05;;;;;;;28.30;7.13;;;;;;;;;;5052462;28;20412;-73
2024/04/08 06:11:31;;;;;;;30.23;8.30;;;;;;;;;;5052058;28;20507;-73
2024/04/08 06:13:56;;;;;;;21.73;6.97;;;;;;;;;;5052343;28;20418;-74
2024/04/08 06:16:22;;;;;;;41.57;7.50;;;;;;;;;;5051989;28;20424;-72
2024/04/08 06:18:48;;;;;;;17.80;6.47;;;;;;;;;;5053297;28;20451;-72
2024/04/08 06:21:14;;;;;;;22.47;8.10;;;;;;;;;;5052251;28;20452;-73
2024/04/08 06:23:40;;;;;;;28.30;9.73;;;;;;;;;;5052381;28;20835;-73
2024/04/08 06:26:06;;;;;;;26.30;7.87;;;;;;;;;;5052410;28;20412;-73
2024/04/08 06:28:32;;;;;;;23.77;7.57;;;;;;;;;;5051529;28;20977;-72
2024/04/08 06:30:58;;;;;;;25.40;8.60;;;;;;;;;;5052197;28;20463;-73
2024/04/08 06:33:24;;;;;;;30.90;8.87;;;;;;;;;;5056921;28;20843;-74
2024/04/08 06:35:51;;;;;;;22.67;7.13;;;;;;;;;;5059553;28;20416;-74
2024/04/08 06:38:17;;;;;;;24.93;6.30;;;;;;;;;;5057212;28;20466;-74
2024/04/08 06:40:44;;;;;;;18.23;7.20;;;;;;;;;;5071829;28;20435;-73
2024/04/08 06:43:10;;;;;;;31.13;7.83;;;;;;;;;;5073693;28;20403;-77
2024/04/08 06:45:36;;;;;;;22.90;6.97;;;;;;;;;;5065670;28;21014;-76
2024/04/08 06:48:03;;;;;;;19.23;6.30;;;;;;;;;;5065468;28;20415;-76
2024/04/08 06:50:29;;;;;;;32.40;7.43;;;;;;;;;;5059089;28;20448;-76
2024/04/08 06:52:55;;;;;;;29.27;7.70;;;;;;;;;;5039246;28;20420;-77
2024/04/08 06:55:21;;;;;;;25.23;7.47;;;;;;;;;;5056448;28;20436;-75
2024/04/08 06:57:47;;;;;;;33.67;7.60;;;;;;;;;;5053785;28;20413;-77
2024/04/08 07:00:13;;;;;;;23.87;7.70;;;;;;;;;;5041847;28;20911;-77
2024/04/08 07:02:40;;;;;;;23.93;7.53;;;;;;;;;;5047280;28;20471;-76
2024/04/08 07:05:07;;;;;;;32.87;8.43;;;;;;;;;;5064470;28;20413;-80
2024/04/08 07:07:33;;;;;;;24.30;7.60;;;;;;;;;;5067080;28;20421;-80
2024/04/08 07:09:59;;;;;;;38.80;8.00;;;;;;;;;;5055715;28;20443;-79
2024/04/08 07:12:24;;;;;;;27.30;7.80;;;;;;;;;;5068096;28;20467;-79
2024/04/08 07:14:51;;;;;;;30.13;6.60;;;;;;;;;;5074146;28;20428;-79
2024/04/08 07:17:17;;;;;;;22.80;7.23;;;;;;;;;;5074291;28;20424;-80
2024/04/08 07:19:43;;;;;;;25.20;7.07;;;;;;;;;;5071309;28;20463;-80
2024/04/08 07:22:09;;;;;;;21.60;6.33;;;;;;;;;;5072006;28;20424;-80
2024/04/08 07:24:35;;;;;;;26.70;6.63;;;;;;;;;;5067782;28;20433;-79
2024/04/08 07:27:05;;;;;;;22.17;5.97;;;;;;;;;;5074539;28;20408;-79
2024/04/08 07:29:31;;;;;;;25.27;5.00;;;;;;;;;;5068661;28;20468;-80
2024/04/08 07:31:57;;;;;;;17.73;5.30;;;;;;;;;;5072614;28;20432;-79
2024/04/08 07:34:23;;;;;;;14.50;4.93;;;;;;;;;;5062645;28;20435;-79
2024/04/08 07:36:49;;;;;;;19.53;5.87;;;;;;;;;;5059363;28;20412;-79
2024/04/08 07:39:15;;;;;;;20.13;6.20;;;;;;;;;;5061354;28;20528;-79
2024/04/08 07:41:41;;;;;;;21.07;5.30;;;;;;;;;;5060858;28;20536;-80
2024/04/08 07:44:07;;;;;;;22.40;5.97;;;;;;;;;;5061704;28;20463;-82
2024/04/08 07:46:33;;;;;;;24.13;6.40;;;;;;;;;;5046430;28;20441;-82
2024/04/08 07:48:59;;;;;;;23.00;6.93;;;;;;;;;;5053746;28;20420;-78
2024/04/08 07:51:25;;;;;;;22.67;6.50;;;;;;;;;;5049102;28;20508;-78
2024/04/08 07:53:51;;;;;;;43.07;9.00;;;;;;;;;;5052422;28;20518;-77
2024/04/08 07:56:17;;;;;;;22.70;5.93;;;;;;;;;;5047225;28;20474;-80
2024/04/08 07:58:43;;;;;;;25.33;6.27;;;;;;;;;;5043174;28;20490;-82
2024/04/08 08:01:09;;;;;;;35.07;5.77;;;;;;;;;;5057516;28;20880;-80
2024/04/08 08:03:35;;;;;;;33.03;6.00;;;;;;;;;;5049542;28;20425;-81
2024/04/08 08:06:02;;;;;;;18.43;5.27;;;;;;;;;;5054898;28;20503;-80
2024/04/08 08:08:28;;;;;;;27.00;7.17;;;;;;;;;;5067989;28;20431;-81
2024/04/08 08:10:57;;;;;;;28.10;6.30;;;;;;;;;;5069381;28;20462;-80
2024/04/08 08:13:23;;;;;;;19.53;4.63;;;;;;;;;;5066628;28;20485;-82
2024/04/08 08:15:56;;;;;;;19.27;5.60;;;;;;;;;;5075236;28;20413;-83
2024/04/08 08:18:22;;;;;;;27.60;6.30;;;;;;;;;;5069685;28;20456;-83
2024/04/08 08:20:48;;;;;;;17.90;5.40;;;;;;;;;;5061708;28;20448;-83
2024/04/08 08:23:15;;;;;;;18.40;4.70;;;;;;;;;;5068057;28;20422;-83
2024/04/08 08:25:41;;;;;;;22.20;5.93;;;;;;;;;;5064228;28;20431;-81
2024/04/08 08:28:07;;;;;;;28.37;5.43;;;;;;;;;;5062601;28;20875;-81
2024/04/08 08:30:36;;;;;;;16.30;4.93;;;;;;;;;;5051830;28;20463;-82
2024/04/08 08:33:02;;;;;;;18.30;5.03;;;;;;;;;;5060880;28;20404;-81
2024/04/08 08:35:30;;;;;;;20.17;4.70;;;;;;;;;;5062020;28;20479;-83
2024/04/08 08:37:56;;;;;;;27.90;6.10;;;;;;;;;;5059982;28;20486;-81
2024/04/08 08:40:23;;;;;;;25.27;5.30;;;;;;;;;;5056440;28;20420;-81
2024/04/08 08:42:56;;;;;;;24.03;5.70;;;;;;;;;;5059228;28;20397;-83
2024/04/08 08:45:23;;;;;;;23.73;5.23;;;;;;;;;;5056608;28;20435;-80
2024/04/08 08:47:49;;;;;;;21.83;5.40;;;;;;;;;;5050328;28;20941;-80
2024/04/08 08:50:15;;;;;;;17.90;5.60;;;;;;;;;;5075686;28;20423;-80
2024/04/08 08:52:41;;;;;;;20.10;5.70;;;;;;;;;;5056552;28;20431;-80
2024/04/08 08:55:07;;;;;;;23.17;6.20;;;;;;;;;;5057174;28;20420;-81
2024/04/08 08:57:34;;;;;;;13.40;4.73;;;;;;;;;;5060210;28;20432;-79
2024/04/08 09:00:03;;;;;;;13.63;4.73;;;;;;;;;;5059864;28;20817;-79
2024/04/08 09:02:29;;;;;;;23.77;6.30;;;;;;;;;;5054514;28;20448;-78
2024/04/08 09:04:55;;;;;;;18.50;5.37;;;;;;;;;;5057696;28;20448;-79
2024/04/08 09:07:21;;;;;;;14.43;4.03;;;;;;;;;;5068037;28;20431;-79
2024/04/08 09:09:54;;;;;;;19.13;4.23;;;;;;;;;;5072327;28;20397;-80
2024/04/08 09:12:20;;;;;;;17.80;4.80;;;;;;;;;;5064659;28;20497;-78
2024/04/08 09:14:48;;;;;;;20.30;4.77;;;;;;;;;;5058614;28;20407;-79
2024/04/08 09:17:14;;;;;;;29.60;5.30;;;;;;;;;;5071628;28;20450;-79
2024/04/08 09:19:40;;;;;;;24.73;3.90;;;;;;;;;;5076895;28;20495;-80
2024/04/08 09:22:08;;;;;;;16.13;4.30;;;;;;;;;;5074360;28;20431;-79
2024/04/08 09:24:34;;;;;;;11.80;3.57;;;;;;;;;;5077307;28;20408;-79
2024/04/08 09:27:00;;;;;;;21.90;4.30;;;;;;;;;;5076145;28;20410;-78
2024/04/08 09:29:26;;;;;;;14.10;3.80;;;;;;;;;;5075919;28;20412;-81
2024/04/08 09:31:52;;;;;;;12.37;3.93;;;;;;;;;;5077348;28;20433;-81
2024/04/08 09:34:21;;;;;;;13.03;4.20;;;;;;;;;;5069510;28;20514;-81
2024/04/08 09:36:47;;;;;;;12.60;4.10;;;;;;;;;;5072015;28;20442;-80
2024/04/08 09:39:13;;;;;;;15.33;5.07;;;;;;;;;;5073959;28;20467;-81
2024/04/08 09:41:40;;;;;;;20.73;4.70;;;;;;;;;;5056393;28;20993;-79
2024/04/08 09:44:09;;;;;;;21.93;3.93;;;;;;;;;;5055333;28;20416;-80
2024/04/08 09:46:36;;;;;;;23.07;4.63;;;;;;;;;;5068446;28;20910;-80
2024/04/08 09:49:03;;;;;;;21.90;3.93;;;;;;;;;;5070095;28;20427;-81
2024/04/08 09:51:30;;;;;;;16.73;4.27;;;;;;;;;;5076747;28;20788;-79
2024/04/08 09:53:56;;;;;;;18.60;4.00;;;;;;;;;;5074215;28;20780;-80
2024/04/08 09:56:22;;;;;;;20.80;4.20;;;;;;;;;;5073610;28;20761;-81
2024/04/08 09:58:58;;;;;;;22.60;3.67;;;;;;;;;;5054351;28;21028;-79
2024/04/08 10:01:24;;;;;;;17.27;4.43;;;;;;;;;;5052960;28;20527;-78
2024/04/08 10:03:51;;;;;;;9.20;3.30;;;;;;;;;;5072322;28;20902;-79
2024/04/08 10:06:21;;;;;;;11.10;4.03;;;;;;;;;;5079103;28;20412;-77
2024/04/08 10:08:48;;;;;;;17.50;3.90;;;;;;;;;;5057096;28;20419;-77
2024/04/08 10:11:15;;;;;;;17.83;4.10;;;;;;;;;;5056402;28;20436;-77
2024/04/08 10:13:47;;;;;;;12.20;3.40;;;;;;;;;;5061119;28;20464;-80
2024/04/08 10:16:14;;;;;;;22.60;4.63;;;;;;;;;;5052357;28;20462;-80
2024/04/08 10:18:47;;;;;;;17.63;3.90;;;;;;;;;;5057495;28;20824;-80
2024/04/08 10:21:14;;;;;;;15.53;3.63;;;;;;;;;;5047094;28;20441;-80
2024/04/08 10:23:40;;;;;;;13.17;4.63;;;;;;;;;;5063324;28;20426;-80
2024/04/08 10:26:10;;;;;;;16.00;3.60;;;;;;;;;;5073023;28;20404;-80
2024/04/08 10:28:39;;;;;;;12.70;3.47;;;;;;;;;;5073780;28;20807;-81
2024/04/08 10:31:05;;;;;;;18.30;3.77;;;;;;;;;;5073431;28;20450;-78
2024/04/08 10:33:31;;;;;;;11.03;3.50;;;;;;;;;;5072516;28;21043;-78
2024/04/08 10:35:57;;;;;;;14.13;4.07;;;;;;;;;;5056383;28;20934;-77
2024/04/08 10:38:23;;;;;;;14.27;3.17;;;;;;;;;;5053468;28;20463;-77
2024/04/08 10:40:49;;;;;;;9.27;3.47;;;;;;;;;;5056986;28;20451;-78
2024/04/08 10:43:15;;;;;;;10.83;3.00;;;;;;;;;;5054439;28;20416;-78
2024/04/08 10:45:42;;;;;;;12.63;3.70;;;;;;;;;;5052998;28;20465;-77
2024/04/08 10:48:11;;;;;;;14.23;3.47;;;;;;;;;;5053581;28;20610;-77
2024/04/08 10:50:38;;;;;;;15.50;3.77;;;;;;;;;;5052156;28;20432;-78
2024/04/08 10:53:04;;;;;;;12.20;3.10;;;;;;;;;;5052253;28;20499;-76
2024/04/08 10:55:30;;;;;;;11.37;3.80;;;;;;;;;;5051560;28;20400;-76
2024/04/08 10:57:57;;;;;;;18.37;3.33;;;;;;;;;;5052543;28;20413;-76
2024/04/08 11:00:23;;;;;;;7.90;3.40;;;;;;;;;;5052124;28;20463;-75
2024/04/08 11:02:50;;;;;;;8.10;2.70;;;;;;;;;;5059540;28;20960;-77
2024/04/08 11:05:16;;;;;;;11.63;3.30;;;;;;;;;;5051179;28;20478;-75
2024/04/08 11:07:42;;;;;;;10.93;3.47;;;;;;;;;;5053764;28;20470;-76
2024/04/08 11:10:11;;;;;;;12.23;3.10;;;;;;;;;;5054654;28;20431;-78
2024/04/08 11:12:37;;;;;;;15.47;3.50;;;;;;;;;;5055825;28;20831;-77
2024/04/08 11:15:03;;;;;;;10.83;3.50;;;;;;;;;;5060645;28;20434;-76
2024/04/08 11:17:30;;;;;;;10.77;2.97;;;;;;;;;;5056192;28;20487;-76
2024/04/08 11:19:56;;;;;;;13.50;3.53;;;;;;;;;;5055297;28;20470;-76
2024/04/08 11:22:22;;;;;;;14.67;3.33;;;;;;;;;;5055786;28;20790;-75
2024/04/08 11:24:48;;;;;;;12.80;3.80;;;;;;;;;;5054396;28;20439;-76
2024/04/08 11:27:16;;;;;;;12.43;3.27;;;;;;;;;;5105494;22;20493;-73
2024/04/08 11:29:42;;;;;;;9.27;3.43;;;;;;;;;;5038706;28;20584;-74
2024/04/08 11:32:13;;;;;;;14.63;3.80;;;;;;;;;;5038200;28;20436;-73
2024/04/08 11:34:39;;;;;;;19.53;3.70;;;;;;;;;;5037961;28;20424;-72
2024/04/08 11:37:08;;;;;;;12.90;2.73;;;;;;;;;;5049257;28;20466;-73
2024/04/08 11:39:34;;;;;;;8.90;3.53;;;;;;;;;;5058244;28;20474;-73
2024/04/08 11:42:00;;;;;;;17.30;4.10;;;;;;;;;;5048340;28;20417;-73
2024/04/08 11:44:32;;;;;;;16.20;3.50;;;;;;;;;;5051005;28;20420;-73
2024/04/08 11:46:58;;;;;;;12.33;3.30;;;;;;;;;;5055599;28;20436;-73
2024/04/08 11:49:25;;;;;;;18.70;3.53;;;;;;;;;;5055469;28;20442;-73
2024/04/08 11:51:51;;;;;;;12.03;3.43;;;;;;;;;;5056249;28;20424;-73
2024/04/08 11:54:17;;;;;;;11.33;3.70;;;;;;;;;;5056284;28;20454;-73
2024/04/08 11:56:43;;;;;;;11.27;3.50;;;;;;;;;;5057267;28;20483;-74
2024/04/08 11:59:09;;;;;;;21.10;4.40;;;;;;;;;;5056327;28;20494;-73
2024/04/08 12:01:36;;;;;;;16.10;3.60;;;;;;;;;;5054666;28;20923;-73
2024/04/08 12:04:02;;;;;;;18.20;5.10;;;;;;;;;;5046970;28;20428;-74
2024/04/08 12:06:29;;;;;;;18.53;3.20;;;;;;;;;;5042602;28;20827;-74
2024/04/08 12:08:56;;;;;;;17.50;4.00;;;;;;;;;;5036307;28;20417;-73
2024/04/08 12:11:22;;;;;;;25.17;4.03;;;;;;;;;;5053372;28;20416;-73
2024/04/08 12:13:48;;;;;;;18.53;3.37;;;;;;;;;;5055262;28;20430;-74
2024/04/08 12:16:15;;;;;;;19.00;3.57;;;;;;;;;;5055938;28;20843;-73
2024/04/08 12:18:41;;;;;;;12.53;3.70;;;;;;;;;;5051506;28;20474;-74
2024/04/08 12:21:07;;;;;;;27.13;3.97;;;;;;;;;;5056243;28;20444;-72
2024/04/08 12:23:33;;;;;;;22.27;3.40;;;;;;;;;;5053982;28;20416;-73
2024/04/08 12:25:59;;;;;;;20.60;3.53;;;;;;;;;;5053334;28;20462;-73
2024/04/08 12:28:25;;;;;;;19.83;4.40;;;;;;;;;;5054493;28;20431;-72
2024/04/08 12:30:51;;;;;;;21.10;4.00;;;;;;;;;;5050964;28;20428;-74
2024/04/08 12:33:17;;;;;;;15.93;4.37;;;;;;;;;;5050822;28;20527;-74
2024/04/08 12:35:43;;;;;;;14.10;4.30;;;;;;;;;;5040120;28;20488;-72
2024/04/08 12:38:10;;;;;;;20.90;4.20;;;;;;;;;;5036454;28;20424;-72
2024/04/08 12:40:36;;;;;;;17.57;4.57;;;;;;;;;;5035149;28;20410;-73
2024/04/08 12:43:02;;;;;;;21.07;4.43;;;;;;;;;;5034269;28;20755;-72
2024/04/08 12:45:29;;;;;;;11.10;4.00;;;;;;;;;;5035192;28;20489;-73
2024/04/08 12:47:55;;;;;;;16.77;3.80;;;;;;;;;;5035958;28;20441;-74
2024/04/08 12:50:21;;;;;;;22.50;4.87;;;;;;;;;;5044205;28;20518;-76
2024/04/08 12:52:47;;;;;;;28.70;4.10;;;;;;;;;;5040204;28;20436;-75
2024/04/08 12:55:13;;;;;;;27.53;5.50;;;;;;;;;;5050289;28;20464;-76
2024/04/08 12:57:39;;;;;;;15.63;4.47;;;;;;;;;;5047398;28;20455;-75
2024/04/08 13:00:05;;;;;;;13.67;4.30;;;;;;;;;;5047682;28;20464;-74
2024/04/08 13:02:31;;;;;;;29.73;4.30;;;;;;;;;;5033518;28;20791;-74
2024/04/08 13:04:57;;;;;;;23.13;4.60;;;;;;;;;;5041716;28;20416;-73
2024/04/08 13:07:23;;;;;;;20.43;4.27;;;;;;;;;;5046755;28;21021;-73
2024/04/08 13:09:51;;;;;;;21.10;3.97;;;;;;;;;;5046271;28;20475;-73
2024/04/08 13:12:18;;;;;;;22.47;4.70;;;;;;;;;;5053841;28;21002;-72
2024/04/08 13:14:43;;;;;;;14.53;4.57;;;;;;;;;;5053845;28;20416;-73
2024/04/08 13:17:09;;;;;;;18.93;4.57;;;;;;;;;;5050491;28;20484;-72
2024/04/08 13:19:35;;;;;;;20.73;4.63;;;;;;;;;;5039965;28;20540;-72
2024/04/08 13:22:01;;;;;;;29.30;4.57;;;;;;;;;;5036874;28;20405;-72
2024/04/08 13:24:27;;;;;;;24.90;5.40;;;;;;;;;;5035125;28;20423;-72
2024/04/08 13:26:53;;;;;;;23.20;5.70;;;;;;;;;;5048711;28;20464;-72
2024/04/08 13:29:19;;;;;;;25.43;5.93;;;;;;;;;;5037639;28;20409;-72
2024/04/08 13:31:45;;;;;;;18.43;4.77;;;;;;;;;;5039340;28;20424;-72
2024/04/08 13:34:11;;;;;;;35.07;6.40;;;;;;;;;;5034078;28;20852;-73
2024/04/08 13:36:37;;;;;;;22.40;5.77;;;;;;;;;;5033333;28;20429;-74
2024/04/08 13:39:03;;;;;;;28.60;6.53;;;;;;;;;;5037461;28;20460;-73
2024/04/08 13:41:29;;;;;;;25.40;5.30;;;;;;;;;;5048783;28;20415;-73
2024/04/08 13:43:55;;;;;;;28.10;7.87;;;;;;;;;;5049371;28;20511;-73
2024/04/08 13:46:21;;;;;;;42.23;6.70;;;;;;;;;;5046689;28;20449;-74
2024/04/08 13:50:16;;;;;;;31.73;5.57;;;;;;;;;;5470048;26;20677;-75
2024/04/08 13:52:41;;;;;;;43.30;8.50;;;;;;;;;;5443825;26;20466;-74
2024/04/08 13:55:08;;;;;;;34.77;7.57;;;;;;;;;;5471326;26;20625;-73
2024/04/08 13:57:35;;;;;;;36.33;8.43;;;;;;;;;;5429908;26;20461;-74
2024/04/08 14:00:02;;;;;;;44.57;8.70;;;;;;;;;;5419699;26;20456;-75
2024/04/08 14:02:28;;;;;;;36.37;7.13;;;;;;;;;;5413005;26;20464;-74
2024/04/08 14:04:54;;;;;;;43.77;8.87;;;;;;;;;;5403978;26;20524;-74
2024/04/08 14:07:20;;;;;;;45.60;8.20;;;;;;;;;;5419611;26;20472;-73
2024/04/08 14:09:46;;;;;;;41.70;8.97;;;;;;;;;;5432756;26;20524;-73
2024/04/08 14:12:12;;;;;;;33.57;7.73;;;;;;;;;;5432631;26;20990;-74
2024/04/08 14:14:38;;;;;;;39.90;8.53;;;;;;;;;;5400147;26;20459;-74
2024/04/08 14:17:04;;;;;;;45.17;8.70;;;;;;;;;;5402103;26;20463;-74
2024/04/08 14:19:30;;;;;;;31.97;7.53;;;;;;;;;;5409081;26;20465;-73
2024/04/08 14:21:56;;;;;;;56.00;8.63;;;;;;;;;;5426466;26;20847;-76
2024/04/08 14:24:22;;;;;;;68.87;8.33;;;;;;;;;;5433639;26;20852;-75
2024/04/08 14:26:48;;;;;;;53.53;8.37;;;;;;;;;;5433501;26;20882;-74
2024/04/08 14:29:14;;;;;;;45.07;9.87;;;;;;;;;;5435587;26;20440;-74
2024/04/08 14:31:40;;;;;;;36.53;7.90;;;;;;;;;;5442599;26;20506;-74
2024/04/08 14:34:07;;;;;;;33.97;7.77;;;;;;;;;;5408502;26;21052;-74
2024/04/08 14:36:33;;;;;;;34.20;8.00;;;;;;;;;;5405746;26;20509;-74
2024/04/08 14:38:59;;;;;;;47.40;9.10;;;;;;;;;;5397976;26;20968;-73
2024/04/08 14:41:25;;;;;;;41.73;7.63;;;;;;;;;;5406873;26;20946;-74
2024/04/08 14:43:54;;;;;;;59.87;8.10;;;;;;;;;;5431994;26;20801;-75
2024/04/08 14:46:20;;;;;;;40.77;8.60;;;;;;;;;;5427677;26;20869;-74
2024/04/08 14:48:46;;;;;;;60.97;10.57;;;;;;;;;;5433304;26;20460;-75
2024/04/08 14:51:12;;;;;;;49.27;7.40;;;;;;;;;;5433659;26;20440;-74
2024/04/08 14:53:38;;;;;;;51.77;10.60;;;;;;;;;;5404072;26;20843;-76
2024/04/08 14:56:04;;;;;;;54.20;10.80;;;;;;;;;;5404748;26;20468;-74
2024/04/08 14:58:31;;;;;;;60.57;10.40;;;;;;;;;;5398184;26;20593;-74
2024/04/08 15:00:58;;;;;;;56.47;8.50;;;;;;;;;;5385971;26;20445;-74
2024/04/08 15:03:24;;;;;;;47.33;9.53;;;;;;;;;;5383573;26;20442;-74
2024/04/08 15:05:51;;;;;;;60.80;9.13;;;;;;;;;;5382311;26;20446;-73
2024/04/08 15:08:18;;;;;;;41.47;9.60;;;;;;;;;;5352023;26;20498;-73
2024/04/08 15:10:44;;;;;;;45.67;9.20;;;;;;;;;;5356190;26;20541;-73
2024/04/08 15:13:10;;;;;;;41.87;8.00;;;;;;;;;;5378370;26;20466;-76
2024/04/08 15:15:36;;;;;;;41.00;9.83;;;;;;;;;;5401835;26;20464;-76
2024/04/08 15:18:02;;;;;;;56.93;11.07;;;;;;;;;;5418136;26;20465;-75
2024/04/08 15:20:28;;;;;;;35.40;9.00;;;;;;;;;;5412510;26;20708;-75
2024/04/08 15:22:56;;;;;;;44.63;7.80;;;;;;;;;;5382626;26;20462;-74
2024/04/08 15:25:22;;;;;;;50.30;9.80;;;;;;;;;;5383567;26;20453;-75
2024/04/08 15:27:48;;;;;;;49.77;11.37;;;;;;;;;;5378748;26;20522;-74
2024/04/08 15:30:14;;;;;;;52.43;9.50;;;;;;;;;;5347801;26;20564;-76
2024/04/08 15:32:40;;;;;;;48.80;11.20;;;;;;;;;;5348101;26;20859;-75
2024/04/08 15:35:07;;;;;;;46.57;11.47;;;;;;;;;;5347375;26;20982;-76
2024/04/08 15:37:33;;;;;;;55.37;9.97;;;;;;;;;;5347774;26;21120;-75
2024/04/08 15:39:59;;;;;;;56.47;10.90;;;;;;;;;;5373570;26;20465;-74
2024/04/08 15:42:25;;;;;;;45.13;9.77;;;;;;;;;;5382869;26;20446;-75
2024/04/08 15:44:51;;;;;;;57.70;10.67;;;;;;;;;;5374542;26;20798;-74
2024/04/08 15:47:17;;;;;;;59.50;11.50;;;;;;;;;;5383023;26;21052;-75
2024/04/08 15:49:43;;;;;;;54.37;12.60;;;;;;;;;;5382457;26;21004;-75
2024/04/08 15:52:09;;;;;;;38.77;9.53;;;;;;;;;;5384216;26;20573;-76
2024/04/08 15:54:35;;;;;;;51.97;9.10;;;;;;;;;;5382859;26;20496;-75
2024/04/08 15:57:03;;;;;;;54.60;10.10;;;;;;;;;;5373170;26;20463;-78
2024/04/08 15:59:29;;;;;;;41.03;9.00;;;;;;;;;;5402672;26;20493;-75
2024/04/08 16:01:55;;;;;;;53.03;9.80;;;;;;;;;;5376214;26;20519;-76
2024/04/08 16:04:21;;;;;;;54.53;9.87;;;;;;;;;;5388237;26;20565;-75
2024/04/08 16:06:47;;;;;;;55.03;10.40;;;;;;;;;;5363857;26;21060;-75
2024/04/08 16:09:13;;;;;;;60.77;9.67;;;;;;;;;;5389365;26;20577;-75
2024/04/08 16:11:39;;;;;;;49.07;10.87;;;;;;;;;;5372059;26;20457;-74
2024/04/08 16:14:05;;;;;;;43.07;10.10;;;;;;;;;;5403558;26;20446;-75
2024/04/08 16:16:31;;;;;;;62.57;11.40;;;;;;;;;;5415151;26;20541;-73
2024/04/08 16:18:58;;;;;;;45.07;8.77;;;;;;;;;;5355023;26;20466;-73
2024/04/08 16:21:24;;;;;;;51.30;9.90;;;;;;;;;;5388881;26;20446;-75
2024/04/08 16:23:50;;;;;;;48.60;9.90;;;;;;;;;;5394784;26;20558;-74
2024/04/08 16:26:16;;;;;;;47.30;8.80;;;;;;;;;;5400601;26;20561;-78
2024/04/08 16:28:42;;;;;;;60.53;11.60;;;;;;;;;;5397122;26;20466;-77
2024/04/08 16:31:08;;;;;;;54.03;10.20;;;;;;;;;;5392738;26;20504;-78
2024/04/08 16:33:34;;;;;;;41.60;10.90;;;;;;;;;;5360481;26;20501;-79
2024/04/08 16:36:01;;;;;;;45.27;11.07;;;;;;;;;;5398892;26;20485;-80
2024/04/08 16:38:27;;;;;;;45.40;9.90;;;;;;;;;;5377061;26;20450;-78
2024/04/08 16:40:53;;;;;;;54.60;11.83;;;;;;;;;;5389247;26;20518;-78
2024/04/08 16:43:20;;;;;;;60.93;10.80;;;;;;;;;;5388002;26;20462;-79
2024/04/08 16:45:55;;;;;;;66.70;10.90;;;;;;;;;;5387851;26;20513;-78
2024/04/08 16:48:24;;;;;;;53.07;10.07;;;;;;;;;;5390153;26;20466;-79
2024/04/08 16:50:50;;;;;;;58.00;10.43;;;;;;;;;;5391642;26;20546;-77
2024/04/08 16:53:16;;;;;;;44.50;9.53;;;;;;;;;;5391379;26;20466;-78
2024/04/08 16:55:42;;;;;;;51.10;11.30;;;;;;;;;;5391052;26;20566;-78
2024/04/08 16:58:08;;;;;;;52.77;10.60;;;;;;;;;;5403506;26;20469;-78
2024/04/08 17:00:34;;;;;;;48.90;9.53;;;;;;;;;;5371288;26;20579;-79
2024/04/08 17:03:03;;;;;;;59.93;10.17;;;;;;;;;;5386403;26;20462;-78
2024/04/08 17:05:29;;;;;;;41.27;9.33;;;;;;;;;;5401140;26;20450;-79
2024/04/08 17:07:55;;;;;;;47.80;9.90;;;;;;;;;;5386868;26;20518;-78
2024/04/08 17:10:22;;;;;;;48.57;10.77;;;;;;;;;;5390019;26;20478;-78
2024/04/08 17:12:48;;;;;;;50.47;11.00;;;;;;;;;;5365676;26;20552;-79
2024/04/08 17:15:13;;;;;;;70.53;11.77;;;;;;;;;;5385870;26;20473;-79
2024/04/08 17:17:43;;;;;;;34.40;9.10;;;;;;;;;;5386483;26;20470;-79
2024/04/08 17:20:11;;;;;;;53.37;10.03;;;;;;;;;;5355936;26;20477;-78
2024/04/08 17:22:37;;;;;;;69.23;10.83;;;;;;;;;;5385653;26;20530;-78
2024/04/08 17:25:03;;;;;;;45.07;9.70;;;;;;;;;;5385737;26;20466;-79
2024/04/08 17:27:29;;;;;;;42.97;10.17;;;;;;;;;;5372095;21;20500;-73
2024/04/08 17:29:55;;;;;;;43.60;9.20;;;;;;;;;;5310178;26;20505;-74
2024/04/08 17:32:21;;;;;;;39.10;10.90;;;;;;;;;;5338524;26;20527;-75
2024/04/08 17:34:51;;;;;;;36.30;9.80;;;;;;;;;;5329764;26;20455;-75
2024/04/08 17:37:19;;;;;;;44.13;9.63;;;;;;;;;;5344126;26;20855;-75
2024/04/08 17:39:45;;;;;;;33.73;10.03;;;;;;;;;;5328133;26;20554;-75
2024/04/08 17:42:11;;;;;;;51.47;9.20;;;;;;;;;;5344146;26;20463;-75
2024/04/08 17:44:37;;;;;;;58.13;11.17;;;;;;;;;;5343929;26;20463;-79
2024/04/08 17:47:03;;;;;;;53.87;9.60;;;;;;;;;;5344006;26;20475;-75
2024/04/08 17:49:29;;;;;;;42.37;9.30;;;;;;;;;;5343877;26;21066;-76
2024/04/08 17:51:55;;;;;;;47.93;10.00;;;;;;;;;;5342011;26;20551;-76
2024/04/08 17:54:22;;;;;;;38.97;9.20;;;;;;;;;;5341103;26;20582;-76
2024/04/08 17:56:48;;;;;;;62.80;10.00;;;;;;;;;;5343733;26;20527;-75
2024/04/08 17:59:14;;;;;;;43.40;10.50;;;;;;;;;;5334689;26;20467;-76
2024/04/08 18:01:41;;;;;;;43.97;8.30;;;;;;;;;;5335184;26;20497;-76
2024/04/08 18:04:07;;;;;;;37.43;9.17;;;;;;;;;;5344071;26;20471;-76
2024/04/08 18:06:33;;;;;;;37.63;9.53;;;;;;;;;;5344061;26;20544;-80
2024/04/08 18:08:59;;;;;;;49.73;11.23;;;;;;;;;;5336027;26;20475;-76
2024/04/08 18:11:25;;;;;;;59.33;11.97;;;;;;;;;;5344276;26;20455;-77
2024/04/08 18:13:52;;;;;;;58.23;10.30;;;;;;;;;;5344127;26;20523;-75
2024/04/08 18:16:18;;;;;;;57.43;10.77;;;;;;;;;;5343748;26;20475;-75
2024/04/08 18:18:51;;;;;;;53.33;11.70;;;;;;;;;;5344342;26;20589;-75
2024/04/08 18:21:18;;;;;;;57.30;11.53;;;;;;;;;;5344150;26;20527;-75
2024/04/08 18:23:45;;;;;;;49.03;10.03;;;;;;;;;;5335817;26;20465;-76
2024/04/08 18:26:13;;;;;;;51.23;10.67;;;;;;;;;;5337994;26;20844;-76
2024/04/08 18:28:40;;;;;;;65.83;12.10;;;;;;;;;;5343787;26;20520;-77
2024/04/08 18:31:16;;;;;;;44.87;10.57;;;;;;;;;;5328621;26;20480;-76
2024/04/08 18:33:46;;;;;;;44.00;10.07;;;;;;;;;;5331141;26;20459;-76
2024/04/08 18:36:13;;;;;;;50.43;11.30;;;;;;;;;;5334677;26;20479;-76
2024/04/08 18:38:39;;;;;;;49.27;10.97;;;;;;;;;;5339856;26;20484;-78
2024/04/08 18:41:09;;;;;;;56.07;11.20;;;;;;;;;;5340738;26;20544;-75
2024/04/08 18:43:36;;;;;;;70.10;12.50;;;;;;;;;;5345367;26;20787;-75
2024/04/08 18:46:03;;;;;;;49.10;10.40;;;;;;;;;;5347059;26;21029;-75
2024/04/08 18:48:29;;;;;;;50.27;11.03;;;;;;;;;;5345919;26;21002;-74
2024/04/08 18:50:55;;;;;;;36.77;11.50;;;;;;;;;;5339362;26;20455;-78
2024/04/08 18:53:22;;;;;;;57.03;10.40;;;;;;;;;;5344759;26;20571;-76
2024/04/08 18:55:47;;;;;;;40.47;9.40;;;;;;;;;;5346393;26;21082;-76
2024/04/08 18:58:14;;;;;;;41.23;11.90;;;;;;;;;;5346815;26;20460;-75
2024/04/08 19:00:40;;;;;;;58.97;11.90;;;;;;;;;;5346968;26;20835;-77
2024/04/08 19:03:06;;;;;;;55.07;12.53;;;;;;;;;;5341367;26;20529;-78
2024/04/08 19:05:32;;;;;;;43.50;11.27;;;;;;;;;;5345667;26;20519;-76
2024/04/08 19:07:59;;;;;;;50.73;11.40;;;;;;;;;;5338208;26;21017;-75
2024/04/08 19:10:26;;;;;;;58.83;11.70;;;;;;;;;;5328260;26;21087;-76
2024/04/08 19:12:52;;;;;;;69.77;12.73;;;;;;;;;;5336627;26;21021;-76
2024/04/08 19:15:18;;;;;;;39.63;11.20;;;;;;;;;;5347003;26;20583;-77
2024/04/08 19:17:44;;;;;;;34.70;10.00;;;;;;;;;;5337264;26;20548;-76
2024/04/08 19:20:10;;;;;;;38.97;9.80;;;;;;;;;;5329295;26;20999;-78
2024/04/08 19:22:36;;;;;;;70.47;12.03;;;;;;;;;;5348803;26;20528;-78
2024/04/08 19:25:03;;;;;;;36.97;8.37;;;;;;;;;;5344918;26;20467;-76